Airfield :







YOU CAN JOIN US ON...

 
LOGIN :

Register | Disclaimer

   EN    FR    IT 

 









Legend :    VFR   Marginal VFR   IFR   Intensive IFR   Very Intensive IFR
Visi :
Ceiling :
>= 8 km
>= 3000ft
5 to 8 km
1000 to 3000 ft
1500m to 5 km
500 to 1000 ft
800 to 1500m
200 to 500 ft
< 800m
< 200 ft
Symbols :   Thunderstorms  Fog  Heavy snow  Heavy precipitations  Wind > 20 kt






- Airport Elevation : 30 ft
- IATA code : AZS


MDCY - El Catey Int.

CURRENT METAR :
  • 200000Z 09012KT 9999 FEW018 25/22 Q1014 NOSIG

EXPIRED METARs :
  • 192300Z 07010KT 9999 SCT020 26/22 Q1014
  • 192200Z 08010KT 9999 FEW020 27/22 Q1014
  • 192100Z 09010KT 9999 FEW022 28/22 Q1013
  • 192000Z 08010KT 9999 SCT022 28/23 Q1014

TAF TAF MDCY
Valid from the 20 at 00:00 until the 21 at 00:00 UTC


192200Z 2000/2100 00000KT 9999 SCT018
PROB30 2004/2010 8000 -SHRA SCT016 BKN070
MDCS FIR / North America



MET'MAP, your aeronautical weather chart ! - Copyright ORBIFLY December 2007 - Disclaimer

ORBIFLY MET'MAP TEAM :

Programming & Development : Alexandra Zaïnal
Original concept : Baudouin d'Aumeries
Technical & hardware support : Manuel Goepfert
Assistance : Marc-Olivier Méhu




SOURCES & CREDITS :

   NOAA